createdAt,value
2022-11-20T00:00:34.996Z,3.27
2022-11-20T00:01:35.229Z,3.24
2022-11-20T00:02:35.004Z,3.12
2022-11-20T00:03:35.041Z,3.20
2022-11-20T00:04:35.144Z,3.09
2022-11-20T00:05:34.945Z,2.91
2022-11-20T00:06:35.048Z,2.95
2022-11-20T00:07:35.061Z,3.06
2022-11-20T00:08:34.904Z,3.20
2022-11-20T00:09:34.893Z,3.16
2022-11-20T00:10:35.033Z,3.18
2022-11-20T00:11:34.877Z,3.12
2022-11-20T00:12:34.857Z,3.24
2022-11-20T00:13:34.929Z,3.28
2022-11-20T00:14:34.865Z,3.50
2022-11-20T00:15:36.895Z,3.42
2022-11-20T00:16:35.167Z,3.46
2022-11-20T00:17:35.113Z,3.58
2022-11-20T00:18:35.297Z,3.47
2022-11-20T00:19:34.855Z,3.42
2022-11-20T00:20:34.767Z,3.30
2022-11-20T00:21:34.756Z,3.36
2022-11-20T00:22:34.745Z,3.31
2022-11-20T00:23:34.727Z,3.21
2022-11-20T00:24:38.855Z,3.07
2022-11-20T00:25:35.952Z,3.06
2022-11-20T00:26:34.716Z,3.10
2022-11-20T00:27:34.819Z,3.24
2022-11-20T00:28:34.804Z,3.27
2022-11-20T00:29:34.915Z,3.23
2022-11-20T00:30:34.677Z,3.39
2022-11-20T00:31:34.672Z,3.30
2022-11-20T00:32:34.686Z,3.03
2022-11-20T00:33:34.709Z,3.09
2022-11-20T00:34:34.610Z,3.20
2022-11-20T00:35:34.708Z,3.24
2022-11-20T00:36:40.701Z,3.27
2022-11-20T00:37:35.709Z,3.47
2022-11-20T00:38:36.280Z,3.43
2022-11-20T00:39:36.538Z,3.49
2022-11-20T00:40:42.582Z,3.33
2022-11-20T00:41:35.573Z,3.40
2022-11-20T00:42:39.233Z,3.25
2022-11-20T00:43:37.449Z,3.24
2022-11-20T00:44:36.987Z,3.23
2022-11-20T00:45:34.681Z,3.36
2022-11-20T00:46:34.576Z,3.44
2022-11-20T00:47:36.171Z,3.34
2022-11-20T00:48:36.796Z,3.05
2022-11-20T00:49:35.903Z,3.05
2022-11-20T00:50:35.347Z,3.09
2022-11-20T00:51:35.420Z,3.07
2022-11-20T00:52:35.515Z,2.97
2022-11-20T00:53:37.069Z,3.07
2022-11-20T00:54:35.502Z,3.15
2022-11-20T00:55:35.329Z,3.31
2022-11-20T00:56:38.346Z,3.25
2022-11-20T00:57:35.970Z,3.18
2022-11-20T00:58:34.349Z,3.31
2022-11-20T00:59:34.392Z,3.50
2022-11-20T01:00:34.318Z,3.30
2022-11-20T01:01:34.351Z,3.42
2022-11-20T01:02:34.366Z,3.42
2022-11-20T01:03:34.281Z,3.47
2022-11-20T01:04:34.301Z,3.58
2022-11-20T01:05:34.269Z,3.57
2022-11-20T01:06:34.249Z,3.46
2022-11-20T01:07:34.305Z,3.50
2022-11-20T01:08:34.226Z,3.49
2022-11-20T01:09:34.211Z,3.49
2022-11-20T01:10:34.238Z,3.61
2022-11-20T01:11:34.206Z,3.40
2022-11-20T01:12:34.181Z,3.27
2022-11-20T01:13:34.158Z,3.12
2022-11-20T01:14:34.163Z,3.06
2022-11-20T01:15:34.172Z,2.94
2022-11-20T01:16:34.204Z,2.98
2022-11-20T01:17:34.121Z,3.06
2022-11-20T01:18:34.136Z,3.02
2022-11-20T01:19:34.087Z,2.89
2022-11-20T01:20:34.109Z,2.56
2022-11-20T01:21:34.096Z,2.64
2022-11-20T01:22:34.101Z,2.92
2022-11-20T01:23:34.066Z,2.98
2022-11-20T01:24:34.039Z,3.13
2022-11-20T01:25:34.059Z,3.28
2022-11-20T01:26:34.366Z,3.40
2022-11-20T01:27:34.009Z,3.23
2022-11-20T01:28:34.008Z,3.42
2022-11-20T01:29:33.979Z,3.40
2022-11-20T01:30:33.969Z,3.34
2022-11-20T01:31:33.970Z,2.98
2022-11-20T01:32:33.948Z,2.88
2022-11-20T01:33:33.971Z,2.84
2022-11-20T01:34:33.919Z,2.88
2022-11-20T01:35:33.943Z,2.94
2022-11-20T01:36:33.899Z,3.05
2022-11-20T01:37:33.888Z,3.05
2022-11-20T01:38:34.079Z,3.20
2022-11-20T01:39:33.901Z,3.21
2022-11-20T01:40:33.849Z,3.06
2022-11-20T01:41:33.840Z,3.09
2022-11-20T01:42:33.831Z,3.05
2022-11-20T01:43:33.828Z,3.13
2022-11-20T01:44:33.849Z,3.18
2022-11-20T01:45:33.801Z,3.30
2022-11-20T01:46:33.819Z,3.27
2022-11-20T01:47:33.769Z,3.36
2022-11-20T01:48:33.760Z,3.34
2022-11-20T01:49:33.777Z,3.25
2022-11-20T01:50:33.763Z,3.25
2022-11-20T01:51:33.747Z,3.18
2022-11-20T01:52:33.710Z,3.25
2022-11-20T01:53:33.710Z,3.13
2022-11-20T01:54:33.703Z,3.12
2022-11-20T01:55:33.706Z,3.07
2022-11-20T01:56:33.689Z,3.25
2022-11-20T01:57:33.678Z,3.00
2022-11-20T01:58:33.652Z,2.85
2022-11-20T01:59:33.641Z,2.81
2022-11-20T02:00:33.642Z,2.85
2022-11-20T02:01:33.721Z,2.94
2022-11-20T02:02:33.603Z,2.84
2022-11-20T02:03:33.604Z,2.51
2022-11-20T02:04:33.603Z,2.56
2022-11-20T02:05:33.610Z,2.55
2022-11-20T02:06:33.567Z,2.74
2022-11-20T02:07:33.671Z,2.95
2022-11-20T02:08:33.574Z,2.95
2022-11-20T02:09:33.521Z,2.95
2022-11-20T02:10:33.521Z,2.91
2022-11-20T02:11:33.513Z,2.88
2022-11-20T02:12:33.523Z,2.88
2022-11-20T02:13:33.487Z,2.79
2022-11-20T02:14:33.470Z,2.89
2022-11-20T02:15:33.472Z,2.88
2022-11-20T02:16:33.451Z,2.82
2022-11-20T02:17:33.447Z,2.74
2022-11-20T02:18:33.449Z,3.00
2022-11-20T02:19:33.461Z,3.02
2022-11-20T02:20:33.420Z,3.07
2022-11-20T02:21:33.392Z,3.23
2022-11-20T02:22:33.387Z,3.13
2022-11-20T02:23:33.370Z,2.94
2022-11-20T02:24:33.396Z,2.79
2022-11-20T02:25:33.373Z,2.71
2022-11-20T02:26:33.334Z,2.64
2022-11-20T02:27:33.344Z,2.64
2022-11-20T02:28:33.322Z,2.52
2022-11-20T02:29:33.402Z,2.35
2022-11-20T02:30:33.330Z,2.44
2022-11-20T02:31:33.288Z,2.49
2022-11-20T02:32:33.281Z,2.66
2022-11-20T02:33:33.256Z,2.77
2022-11-20T02:34:33.242Z,2.74
2022-11-20T02:35:33.222Z,2.67
2022-11-20T02:36:33.277Z,2.63
2022-11-20T02:37:33.213Z,2.52
2022-11-20T02:38:33.263Z,2.41
2022-11-20T02:39:33.192Z,2.49
2022-11-20T02:40:33.175Z,2.59
2022-11-20T02:41:33.186Z,2.84
2022-11-20T02:42:33.187Z,3.05
2022-11-20T02:43:33.154Z,3.16
2022-11-20T02:44:33.167Z,3.23
2022-11-20T02:45:33.116Z,3.43
2022-11-20T02:46:33.095Z,3.57
2022-11-20T02:47:33.423Z,3.60
2022-11-20T02:48:34.042Z,3.47
2022-11-20T02:49:33.361Z,3.31
2022-11-20T02:50:33.073Z,3.13
2022-11-20T02:51:33.048Z,3.16
2022-11-20T02:52:33.037Z,3.24
2022-11-20T02:53:33.090Z,3.21
2022-11-20T02:54:33.031Z,3.18
2022-11-20T02:55:33.003Z,3.13
2022-11-20T02:56:33.017Z,3.00
2022-11-20T02:57:32.977Z,3.09
2022-11-20T02:58:33.039Z,3.12
2022-11-20T02:59:32.997Z,2.95
2022-11-20T03:00:32.993Z,3.07
2022-11-20T03:01:33.044Z,2.95
2022-11-20T03:02:32.978Z,2.98
2022-11-20T03:03:32.902Z,2.97
2022-11-20T03:04:32.902Z,2.89
2022-11-20T03:05:32.969Z,2.97
2022-11-20T03:06:32.883Z,2.97
2022-11-20T03:07:32.971Z,3.03
2022-11-20T03:08:32.856Z,3.15
2022-11-20T03:09:32.846Z,3.34
2022-11-20T03:10:32.898Z,3.46
2022-11-20T03:11:32.817Z,3.39
2022-11-20T03:12:32.836Z,3.16
2022-11-20T03:13:32.792Z,3.12
2022-11-20T03:14:32.831Z,3.12
2022-11-20T03:15:32.774Z,2.76
2022-11-20T03:16:32.810Z,2.81
2022-11-20T03:17:32.750Z,2.85
2022-11-20T03:18:32.749Z,3.00
2022-11-20T03:19:32.740Z,2.92
2022-11-20T03:20:32.717Z,2.95
2022-11-20T03:21:32.714Z,3.03
2022-11-20T03:22:32.716Z,3.09
2022-11-20T03:23:32.784Z,3.07
2022-11-20T03:24:32.667Z,2.91
2022-11-20T03:25:32.660Z,3.07
2022-11-20T03:26:32.660Z,3.25
2022-11-20T03:27:32.656Z,3.42
2022-11-20T03:28:32.652Z,3.16
2022-11-20T03:29:32.628Z,3.12
2022-11-20T03:30:32.608Z,3.15
2022-11-20T03:31:32.586Z,3.16
2022-11-20T03:32:32.569Z,3.06
2022-11-20T03:33:32.641Z,3.07
2022-11-20T03:34:32.596Z,3.15
2022-11-20T03:35:32.561Z,3.15
2022-11-20T03:36:32.543Z,3.10
2022-11-20T03:37:32.521Z,3.03
2022-11-20T03:38:32.533Z,2.74
2022-11-20T03:39:32.527Z,2.77
2022-11-20T03:40:32.492Z,3.03
2022-11-20T03:41:32.511Z,3.06
2022-11-20T03:42:32.467Z,2.97
2022-11-20T03:43:32.458Z,2.58
2022-11-20T03:44:32.466Z,2.58
2022-11-20T03:45:32.448Z,2.56
2022-11-20T03:46:32.426Z,2.77
2022-11-20T03:47:32.456Z,2.89
2022-11-20T03:48:32.472Z,3.03
2022-11-20T03:49:32.378Z,2.89
2022-11-20T03:50:32.418Z,2.76
2022-11-20T03:51:32.368Z,2.92
2022-11-20T03:52:32.406Z,2.85
2022-11-20T03:53:32.340Z,2.77
2022-11-20T03:54:32.336Z,2.67
2022-11-20T03:55:32.352Z,2.81
2022-11-20T03:56:33.178Z,2.85
2022-11-20T03:57:32.300Z,3.07
2022-11-20T03:58:32.286Z,3.16
2022-11-20T03:59:32.271Z,3.10
2022-11-20T04:00:32.285Z,3.23
2022-11-20T04:01:32.329Z,3.28
2022-11-20T04:02:32.286Z,3.16
2022-11-20T04:03:32.232Z,3.24
2022-11-20T04:04:32.223Z,3.25
2022-11-20T04:05:33.346Z,3.34
2022-11-20T04:06:32.194Z,3.34
2022-11-20T04:07:32.313Z,3.40
2022-11-20T04:08:32.202Z,3.44
2022-11-20T04:09:32.158Z,3.62
2022-11-20T04:10:32.138Z,3.61
2022-11-20T04:11:32.142Z,3.71
2022-11-20T04:12:32.140Z,3.86
2022-11-20T04:13:32.142Z,3.96
2022-11-20T04:14:32.090Z,3.96
2022-11-20T04:15:35.709Z,3.90
2022-11-20T04:16:33.070Z,4.00
2022-11-20T04:17:32.094Z,4.06
2022-11-20T04:18:32.060Z,4.04
2022-11-20T04:19:32.077Z,4.12
2022-11-20T04:20:32.043Z,4.21
2022-11-20T04:21:32.128Z,4.22
2022-11-20T04:22:32.020Z,4.07
2022-11-20T04:23:32.015Z,3.98
2022-11-20T04:24:32.003Z,3.68
2022-11-20T04:25:32.000Z,3.43
2022-11-20T04:26:31.970Z,3.12
2022-11-20T04:27:31.985Z,3.02
2022-11-20T04:28:32.030Z,3.05
2022-11-20T04:29:32.004Z,2.98
2022-11-20T04:30:31.981Z,3.05
2022-11-20T04:31:32.009Z,2.95
2022-11-20T04:32:31.893Z,2.97
2022-11-20T04:33:34.205Z,2.97
2022-11-20T04:34:31.878Z,2.98
2022-11-20T04:35:31.863Z,3.10
2022-11-20T04:36:31.842Z,3.34
2022-11-20T04:37:31.869Z,3.54
2022-11-20T04:38:31.890Z,3.62
2022-11-20T04:39:31.891Z,3.64
2022-11-20T04:40:31.803Z,3.61
2022-11-20T04:41:31.807Z,3.49
2022-11-20T04:42:31.831Z,3.50
2022-11-20T04:43:31.760Z,3.64
2022-11-20T04:44:31.760Z,3.70
2022-11-20T04:45:31.747Z,3.78
2022-11-20T04:46:31.751Z,3.71
2022-11-20T04:47:31.714Z,3.57
2022-11-20T04:48:31.730Z,3.53
2022-11-20T04:49:31.775Z,3.75
2022-11-20T04:50:31.736Z,3.94
2022-11-20T04:51:31.682Z,4.04
2022-11-20T04:52:31.741Z,4.15
2022-11-20T04:53:31.652Z,4.21
2022-11-20T04:54:31.748Z,4.12
2022-11-20T04:55:31.673Z,3.98
2022-11-20T04:56:31.633Z,4.08
2022-11-20T04:57:31.602Z,4.21
2022-11-20T04:58:31.621Z,4.26
2022-11-20T04:59:31.640Z,4.28
2022-11-20T05:00:31.592Z,4.37
2022-11-20T05:01:31.635Z,4.33
2022-11-20T05:02:31.559Z,4.37
2022-11-20T05:03:31.535Z,4.42
2022-11-20T05:04:31.845Z,4.18
2022-11-20T05:05:31.555Z,3.94
2022-11-20T05:06:31.492Z,3.90
2022-11-20T05:07:31.515Z,3.68
2022-11-20T05:08:31.485Z,3.31
2022-11-20T05:09:31.477Z,3.13
2022-11-20T05:10:31.463Z,2.91
2022-11-20T05:11:31.482Z,2.85
2022-11-20T05:12:31.454Z,3.09
2022-11-20T05:13:31.423Z,3.31
2022-11-20T05:14:31.431Z,3.50
2022-11-20T05:15:31.413Z,3.52
2022-11-20T05:16:31.405Z,3.72
2022-11-20T05:17:31.409Z,3.76
2022-11-20T05:18:31.385Z,3.71
2022-11-20T05:19:31.362Z,3.54
2022-11-20T05:20:31.346Z,3.10
2022-11-20T05:21:31.369Z,3.00
2022-11-20T05:22:31.345Z,3.09
2022-11-20T05:23:31.313Z,3.36
2022-11-20T05:24:31.295Z,3.44
2022-11-20T05:25:31.294Z,3.57
2022-11-20T05:26:31.265Z,3.67
2022-11-20T05:27:31.286Z,3.61
2022-11-20T05:28:31.274Z,3.58
2022-11-20T05:29:31.245Z,3.68
2022-11-20T05:30:31.243Z,3.75
2022-11-20T05:31:31.218Z,3.65
2022-11-20T05:32:31.232Z,3.49
2022-11-20T05:33:31.231Z,3.50
2022-11-20T05:34:31.226Z,3.50
2022-11-20T05:35:31.189Z,3.53
2022-11-20T05:36:31.164Z,3.64
2022-11-20T05:37:31.190Z,3.57
2022-11-20T05:38:31.138Z,3.76
2022-11-20T05:39:31.162Z,3.43
2022-11-20T05:40:31.106Z,3.42
2022-11-20T05:41:31.114Z,3.52
2022-11-20T05:42:31.086Z,3.70
2022-11-20T05:43:31.089Z,3.68
2022-11-20T05:44:31.138Z,3.54
2022-11-20T05:45:31.118Z,3.53
2022-11-20T05:46:31.050Z,3.72
2022-11-20T05:47:31.025Z,3.67
2022-11-20T05:48:31.025Z,3.67
2022-11-20T05:49:31.075Z,3.80
2022-11-20T05:50:31.006Z,3.82
2022-11-20T05:51:31.024Z,3.82
2022-11-20T05:52:31.031Z,3.86
2022-11-20T05:53:31.012Z,3.90
2022-11-20T05:54:30.969Z,3.97
2022-11-20T05:55:30.936Z,3.94
2022-11-20T05:56:30.966Z,4.01
2022-11-20T05:57:30.955Z,3.92
2022-11-20T05:58:30.956Z,3.61
2022-11-20T05:59:30.890Z,3.50
2022-11-20T06:00:30.875Z,3.65
2022-11-20T06:01:30.870Z,3.70
2022-11-20T06:02:30.993Z,3.64
2022-11-20T06:03:30.873Z,3.60
2022-11-20T06:04:30.826Z,3.72
2022-11-20T06:05:30.827Z,3.85
2022-11-20T06:06:30.839Z,3.71
2022-11-20T06:07:30.855Z,3.58
2022-11-20T06:08:30.870Z,3.75
2022-11-20T06:09:30.789Z,3.78
2022-11-20T06:10:30.776Z,3.97
2022-11-20T06:11:30.803Z,4.16
2022-11-20T06:12:30.746Z,4.32
2022-11-20T06:13:30.811Z,4.28
2022-11-20T06:14:30.776Z,4.22
2022-11-20T06:15:30.739Z,4.24
2022-11-20T06:16:30.703Z,4.28
2022-11-20T06:17:30.682Z,4.36
2022-11-20T06:18:30.706Z,4.44
2022-11-20T06:19:30.753Z,4.29
2022-11-20T06:20:30.701Z,4.22
2022-11-20T06:21:30.639Z,4.21
2022-11-20T06:22:30.847Z,4.24
2022-11-20T06:23:30.714Z,4.19
2022-11-20T06:24:30.618Z,4.22
2022-11-20T06:25:30.609Z,4.18
2022-11-20T06:26:30.619Z,3.79
2022-11-20T06:27:30.677Z,3.54
2022-11-20T06:28:30.595Z,3.76
2022-11-20T06:29:33.907Z,3.80
2022-11-20T06:30:30.544Z,3.72
2022-11-20T06:31:30.539Z,3.88
2022-11-20T06:32:30.540Z,4.12
2022-11-20T06:33:30.523Z,4.19
2022-11-20T06:34:30.528Z,4.26
2022-11-20T06:35:30.532Z,4.08
2022-11-20T06:36:30.471Z,4.00
2022-11-20T06:37:30.507Z,4.15
2022-11-20T06:38:30.655Z,4.33
2022-11-20T06:39:30.430Z,4.36
2022-11-20T06:40:30.443Z,4.47
2022-11-20T06:41:30.790Z,4.39
2022-11-20T06:42:30.553Z,4.39
2022-11-20T06:43:30.430Z,4.44
2022-11-20T06:44:30.378Z,4.58
2022-11-20T06:45:30.411Z,4.55
2022-11-20T06:46:30.355Z,4.61
2022-11-20T06:47:30.368Z,4.61
2022-11-20T06:48:30.390Z,4.64
2022-11-20T06:49:30.331Z,4.59
2022-11-20T06:50:30.741Z,4.42
2022-11-20T06:51:30.324Z,3.92
2022-11-20T06:52:30.321Z,3.76
2022-11-20T06:53:30.391Z,4.00
2022-11-20T06:54:30.626Z,4.19
2022-11-20T06:55:30.290Z,4.24
2022-11-20T06:56:30.260Z,4.32
2022-11-20T06:57:30.244Z,4.43
2022-11-20T06:58:30.212Z,4.06
2022-11-20T06:59:30.246Z,4.00
2022-11-20T07:00:30.398Z,4.08
2022-11-20T07:01:30.201Z,4.03
2022-11-20T07:02:30.220Z,4.03
2022-11-20T07:03:30.508Z,4.12
2022-11-20T07:04:30.151Z,4.19
2022-11-20T07:05:30.200Z,4.29
2022-11-20T07:06:30.130Z,4.14
2022-11-20T07:07:30.198Z,4.00
2022-11-20T07:08:30.136Z,4.08
2022-11-20T07:09:30.137Z,4.12
2022-11-20T07:10:30.081Z,4.08
2022-11-20T07:11:30.115Z,4.08
2022-11-20T07:12:30.083Z,4.28
2022-11-20T07:13:30.051Z,4.50
2022-11-20T07:14:30.040Z,4.32
2022-11-20T07:15:30.027Z,4.07
2022-11-20T07:16:30.122Z,4.22
2022-11-20T07:17:30.002Z,4.32
2022-11-20T07:18:30.014Z,4.40
2022-11-20T07:19:30.211Z,4.50
2022-11-20T07:20:30.005Z,4.52
2022-11-20T07:21:29.958Z,4.64
2022-11-20T07:22:30.261Z,4.76
2022-11-20T07:23:29.942Z,4.80
2022-11-20T07:24:29.921Z,4.86
2022-11-20T07:25:29.936Z,4.88
2022-11-20T07:26:29.917Z,4.95
2022-11-20T07:27:29.921Z,4.95
2022-11-20T07:28:29.882Z,4.98
2022-11-20T07:29:29.872Z,5.01
2022-11-20T07:30:29.873Z,4.94
2022-11-20T07:31:30.193Z,4.98
2022-11-20T07:32:29.862Z,5.01
2022-11-20T07:33:29.859Z,5.04
2022-11-20T07:34:29.878Z,5.04
2022-11-20T07:35:29.804Z,4.95
2022-11-20T07:36:29.904Z,4.84
2022-11-20T07:37:29.791Z,4.70
2022-11-20T07:38:29.841Z,4.79
2022-11-20T07:39:29.774Z,4.69
2022-11-20T07:40:29.743Z,4.62
2022-11-20T07:41:29.775Z,4.73
2022-11-20T07:42:29.722Z,4.76
2022-11-20T07:43:29.713Z,4.46
2022-11-20T07:44:29.692Z,4.44
2022-11-20T07:45:29.753Z,4.50
2022-11-20T07:46:29.692Z,4.44
2022-11-20T07:47:29.656Z,4.54
2022-11-20T07:48:29.714Z,4.58
2022-11-20T07:49:29.661Z,4.57
2022-11-20T07:50:29.637Z,4.67
2022-11-20T07:51:29.637Z,4.69
2022-11-20T07:52:29.769Z,4.72
2022-11-20T07:53:29.589Z,4.88
2022-11-20T07:54:29.594Z,4.91
2022-11-20T07:55:29.665Z,4.92
2022-11-20T07:56:29.595Z,4.67
2022-11-20T07:57:30.331Z,4.22
2022-11-20T07:58:29.658Z,4.33
2022-11-20T07:59:29.537Z,4.43
2022-11-20T08:00:29.609Z,4.55
2022-11-20T08:01:29.596Z,4.72
2022-11-20T08:02:29.616Z,4.86
2022-11-20T08:03:29.505Z,4.99
2022-11-20T08:04:29.491Z,5.10
2022-11-20T08:05:29.512Z,5.09
2022-11-20T08:06:29.445Z,5.20
2022-11-20T08:07:30.761Z,5.27
2022-11-20T08:08:33.306Z,5.09
2022-11-20T08:09:29.413Z,5.12
2022-11-20T08:10:29.442Z,5.25
2022-11-20T08:11:29.510Z,5.27
2022-11-20T08:12:29.407Z,5.27
2022-11-20T08:13:29.422Z,5.10
2022-11-20T08:14:29.356Z,5.16
2022-11-20T08:15:29.345Z,5.27
2022-11-20T08:16:29.422Z,5.30
2022-11-20T08:17:29.361Z,5.31
2022-11-20T08:18:31.730Z,5.43
2022-11-20T08:19:29.327Z,5.40
2022-11-20T08:20:29.324Z,5.46
2022-11-20T08:21:31.726Z,5.34
2022-11-20T08:22:30.283Z,5.35
2022-11-20T08:23:29.318Z,5.50
2022-11-20T08:24:29.267Z,5.52
2022-11-20T08:25:29.270Z,5.41
2022-11-20T08:26:29.226Z,5.41
2022-11-20T08:27:29.229Z,5.13
2022-11-20T08:28:29.206Z,5.34
2022-11-20T08:29:29.412Z,5.55
2022-11-20T08:30:29.188Z,5.77
2022-11-20T08:31:29.185Z,5.78
2022-11-20T08:32:29.162Z,5.88
2022-11-20T08:33:29.166Z,5.95
2022-11-20T08:34:29.241Z,5.66
2022-11-20T08:35:29.146Z,5.64
2022-11-20T08:36:29.140Z,5.71
2022-11-20T08:37:29.125Z,5.50
2022-11-20T08:38:29.285Z,5.45
2022-11-20T08:39:29.097Z,5.32
2022-11-20T08:40:29.168Z,5.45
2022-11-20T08:41:29.117Z,5.66
2022-11-20T08:42:29.063Z,5.67
2022-11-20T08:43:29.027Z,5.88
2022-11-20T08:44:29.050Z,6.00
2022-11-20T08:45:33.689Z,6.18
2022-11-20T08:46:30.031Z,6.18
2022-11-20T08:47:28.995Z,6.14
2022-11-20T08:48:29.029Z,6.06
2022-11-20T08:49:28.968Z,6.16
2022-11-20T08:50:29.074Z,6.30
2022-11-20T08:51:28.939Z,6.26
2022-11-20T08:52:28.949Z,5.88
2022-11-20T08:53:28.937Z,5.95
2022-11-20T08:54:28.908Z,6.04
2022-11-20T08:55:28.894Z,6.14
2022-11-20T08:56:28.885Z,6.26
2022-11-20T08:57:28.900Z,6.33
2022-11-20T08:58:29.027Z,6.48
2022-11-20T08:59:50.749Z,6.36
2022-11-20T09:00:29.832Z,6.10
2022-11-20T09:01:28.843Z,5.95
2022-11-20T09:02:28.800Z,6.18
2022-11-20T09:03:32.603Z,6.35
2022-11-20T09:04:28.789Z,6.48
2022-11-20T09:05:28.790Z,6.62
2022-11-20T09:06:28.791Z,6.62
2022-11-20T09:07:28.840Z,6.65
2022-11-20T09:08:28.785Z,6.16
2022-11-20T09:09:28.849Z,6.09
2022-11-20T09:10:28.846Z,6.32
2022-11-20T09:11:28.884Z,6.47
2022-11-20T09:12:28.691Z,6.44
2022-11-20T09:13:28.789Z,6.61
2022-11-20T09:14:28.866Z,6.71
2022-11-20T09:15:28.679Z,6.35
2022-11-20T09:16:28.651Z,6.26
2022-11-20T09:17:28.635Z,6.46
2022-11-20T09:18:28.659Z,6.32
2022-11-20T09:19:35.420Z,6.10
2022-11-20T09:20:29.636Z,6.11
2022-11-20T09:21:28.623Z,6.01
2022-11-20T09:22:28.591Z,5.91
2022-11-20T09:23:28.611Z,5.85
2022-11-20T09:24:28.636Z,5.71
2022-11-20T09:25:28.591Z,5.48
2022-11-20T09:26:28.559Z,5.59
2022-11-20T09:27:28.522Z,5.64
2022-11-20T09:28:28.534Z,5.67
2022-11-20T09:29:28.520Z,6.00
2022-11-20T09:30:28.526Z,5.98
2022-11-20T09:31:28.528Z,6.11
2022-11-20T09:32:28.482Z,6.16
2022-11-20T09:33:28.454Z,6.16
2022-11-20T09:34:28.434Z,6.14
2022-11-20T09:35:28.452Z,6.01
2022-11-20T09:36:28.455Z,5.86
2022-11-20T09:37:28.465Z,5.85
2022-11-20T09:38:28.384Z,6.26
2022-11-20T09:39:28.394Z,6.35
2022-11-20T09:40:28.394Z,6.10
2022-11-20T09:41:28.420Z,6.21
2022-11-20T09:42:28.383Z,6.41
2022-11-20T09:43:32.281Z,6.61
2022-11-20T09:44:29.322Z,6.86
2022-11-20T09:45:28.314Z,6.95
2022-11-20T09:46:28.309Z,7.07
2022-11-20T09:47:28.334Z,7.20
2022-11-20T09:48:28.304Z,7.34
2022-11-20T09:49:32.338Z,7.40
2022-11-20T09:50:28.267Z,7.27
2022-11-20T09:51:28.257Z,7.37
2022-11-20T09:52:28.271Z,7.35
2022-11-20T09:53:28.275Z,7.35
2022-11-20T09:54:28.258Z,7.24
2022-11-20T09:55:28.301Z,7.38
2022-11-20T09:56:28.210Z,7.45
2022-11-20T09:57:28.194Z,7.38
2022-11-20T09:58:28.194Z,7.13
2022-11-20T09:59:28.196Z,7.26
2022-11-20T10:00:28.154Z,7.26
2022-11-20T10:01:28.203Z,7.44
2022-11-20T10:02:28.185Z,7.26
2022-11-20T10:03:28.123Z,7.12
2022-11-20T10:04:28.161Z,7.12
2022-11-20T10:05:28.109Z,6.94
2022-11-20T10:06:28.097Z,7.04
2022-11-20T10:07:32.668Z,7.15
2022-11-20T10:08:29.098Z,6.99
2022-11-20T10:09:28.074Z,7.08
2022-11-20T10:10:28.096Z,7.20
2022-11-20T10:11:28.046Z,6.94
2022-11-20T10:12:28.026Z,6.91
2022-11-20T10:13:28.042Z,6.95
2022-11-20T10:14:27.996Z,6.76
2022-11-20T10:15:27.996Z,6.80
2022-11-20T10:16:27.996Z,6.99
2022-11-20T10:17:27.956Z,7.01
2022-11-20T10:18:27.947Z,6.71
2022-11-20T10:19:27.962Z,6.40
2022-11-20T10:20:27.953Z,6.50
2022-11-20T10:21:27.950Z,6.68
2022-11-20T10:22:27.917Z,6.33
2022-11-20T10:23:27.899Z,6.44
2022-11-20T10:24:27.869Z,6.40
2022-11-20T10:25:27.878Z,6.53
2022-11-20T10:26:28.367Z,6.72
2022-11-20T10:27:27.869Z,6.68
2022-11-20T10:28:27.920Z,6.65
2022-11-20T10:29:27.874Z,6.61
2022-11-20T10:30:27.826Z,6.51
2022-11-20T10:31:27.921Z,6.59
2022-11-20T10:32:28.125Z,6.63
2022-11-20T10:33:38.771Z,6.46
2022-11-20T10:34:29.896Z,6.36
2022-11-20T10:35:27.759Z,6.28
2022-11-20T10:36:27.768Z,6.48
2022-11-20T10:37:27.718Z,6.51
2022-11-20T10:38:28.978Z,6.53
2022-11-20T10:39:27.720Z,6.36
2022-11-20T10:40:27.743Z,6.40
2022-11-20T10:41:28.138Z,6.16
2022-11-20T10:42:27.701Z,5.83
2022-11-20T10:43:27.691Z,5.88
2022-11-20T10:44:27.668Z,6.07
2022-11-20T10:45:27.711Z,6.16
2022-11-20T10:46:27.923Z,6.18
2022-11-20T10:47:27.849Z,6.26
2022-11-20T10:48:27.630Z,5.96
2022-11-20T10:49:27.578Z,6.21
2022-11-20T10:50:27.593Z,6.30
2022-11-20T10:51:27.562Z,6.44
2022-11-20T10:52:27.560Z,6.76
2022-11-20T10:53:27.570Z,6.73
2022-11-20T10:54:27.527Z,6.71
2022-11-20T10:55:27.571Z,6.86
2022-11-20T10:56:27.550Z,6.80
2022-11-20T10:57:27.511Z,6.56
2022-11-20T10:58:27.510Z,6.50
2022-11-20T10:59:27.495Z,6.29
2022-11-20T11:00:27.500Z,6.35
2022-11-20T11:01:27.650Z,6.46
2022-11-20T11:02:27.501Z,6.38
2022-11-20T11:03:27.439Z,6.58
2022-11-20T11:04:27.422Z,6.65
2022-11-20T11:05:27.401Z,6.65
2022-11-20T11:06:27.422Z,6.51
2022-11-20T11:07:27.427Z,6.48
2022-11-20T11:08:27.366Z,6.58
2022-11-20T11:09:27.355Z,6.68
2022-11-20T11:10:27.342Z,6.59
2022-11-20T11:11:27.353Z,6.81
2022-11-20T11:12:27.383Z,6.95
2022-11-20T11:13:27.327Z,7.07
2022-11-20T11:14:27.311Z,7.08
2022-11-20T11:15:27.311Z,6.80
2022-11-20T11:16:27.301Z,6.72
2022-11-20T11:17:27.256Z,6.76
2022-11-20T11:18:27.284Z,6.72
2022-11-20T11:19:27.248Z,6.72
2022-11-20T11:20:27.226Z,6.59
2022-11-20T11:21:27.255Z,6.61
2022-11-20T11:22:27.214Z,6.68
2022-11-20T11:23:27.186Z,6.62
2022-11-20T11:24:41.619Z,6.61
2022-11-20T11:25:28.269Z,6.51
2022-11-20T11:26:27.186Z,6.46
2022-11-20T11:27:27.358Z,6.73
2022-11-20T11:28:27.162Z,6.81
2022-11-20T11:29:27.133Z,6.89
2022-11-20T11:30:27.154Z,6.81
2022-11-20T11:31:27.097Z,6.86
2022-11-20T11:32:27.120Z,7.08
2022-11-20T11:33:27.086Z,7.29
2022-11-20T11:34:27.097Z,7.16
2022-11-20T11:35:27.064Z,7.05
2022-11-20T11:36:27.074Z,7.13
2022-11-20T11:37:27.109Z,7.26
2022-11-20T11:38:27.046Z,7.19
2022-11-20T11:39:27.019Z,6.99
2022-11-20T11:40:27.064Z,6.90
2022-11-20T11:41:27.043Z,6.98
2022-11-20T11:42:27.058Z,7.09
2022-11-20T11:43:27.016Z,6.97
2022-11-20T11:44:27.394Z,6.76
2022-11-20T11:45:26.988Z,6.84
2022-11-20T11:46:27.013Z,6.54
2022-11-20T11:47:26.928Z,6.29
2022-11-20T11:48:26.925Z,6.30
2022-11-20T11:49:26.945Z,6.16
2022-11-20T11:50:26.957Z,6.13
2022-11-20T11:51:26.897Z,6.04
2022-11-20T11:52:26.926Z,6.11
2022-11-20T11:53:26.874Z,6.18
2022-11-20T11:54:26.841Z,6.33
2022-11-20T11:55:26.884Z,6.51
2022-11-20T11:56:26.826Z,6.69
2022-11-20T11:57:26.835Z,6.72
2022-11-20T11:58:26.878Z,6.59
2022-11-20T11:59:26.832Z,6.66
2022-11-20T12:00:26.778Z,6.84
2022-11-20T12:01:26.770Z,6.95
2022-11-20T12:02:26.937Z,6.86
2022-11-20T12:03:26.849Z,6.89
2022-11-20T12:04:26.799Z,6.84
2022-11-20T12:05:26.752Z,6.76
2022-11-20T12:06:26.705Z,6.86
2022-11-20T12:07:45.476Z,6.65
2022-11-20T12:08:27.702Z,6.63
2022-11-20T12:09:26.754Z,6.81
2022-11-20T12:10:27.407Z,6.83
2022-11-20T12:11:26.699Z,6.68
2022-11-20T12:12:26.627Z,6.72
2022-11-20T12:13:26.613Z,6.94
2022-11-20T12:14:26.604Z,7.13
2022-11-20T12:15:26.620Z,7.23
2022-11-20T12:16:26.639Z,7.23
2022-11-20T12:17:26.570Z,7.32
2022-11-20T12:18:26.560Z,7.41
2022-11-20T12:19:26.622Z,7.55
2022-11-20T12:20:26.539Z,7.55
2022-11-20T12:21:26.670Z,7.59
2022-11-20T12:22:26.569Z,7.62
2022-11-20T12:23:26.542Z,7.52
2022-11-20T12:24:26.528Z,7.40
2022-11-20T12:25:26.540Z,7.58
2022-11-20T12:26:26.464Z,7.69
2022-11-20T12:27:26.541Z,7.78
2022-11-20T12:28:26.497Z,7.79
2022-11-20T12:29:26.501Z,7.77
2022-11-20T12:30:26.439Z,7.56
2022-11-20T12:31:26.451Z,7.29
2022-11-20T12:32:26.460Z,7.16
2022-11-20T12:33:26.478Z,7.22
2022-11-20T12:34:26.474Z,7.27
2022-11-20T12:35:26.362Z,7.07
2022-11-20T12:36:26.412Z,7.01
2022-11-20T12:37:26.353Z,7.12
2022-11-20T12:38:26.383Z,7.20
2022-11-20T12:39:26.352Z,7.31
2022-11-20T12:40:26.301Z,7.26
2022-11-20T12:41:26.291Z,7.38
2022-11-20T12:42:26.293Z,7.49
2022-11-20T12:43:26.281Z,7.34
2022-11-20T12:44:26.275Z,7.24
2022-11-20T12:45:26.282Z,7.16
2022-11-20T12:46:26.242Z,7.23
2022-11-20T12:47:26.282Z,7.04
2022-11-20T12:48:26.222Z,6.71
2022-11-20T12:49:26.295Z,6.41
2022-11-20T12:50:26.239Z,6.30
2022-11-20T12:51:26.342Z,6.25
2022-11-20T12:52:26.183Z,6.29
2022-11-20T12:53:26.259Z,6.63
2022-11-20T12:54:26.154Z,6.98
2022-11-20T12:55:26.154Z,7.12
2022-11-20T12:56:26.176Z,7.31
2022-11-20T12:57:26.241Z,7.49
2022-11-20T12:58:26.124Z,7.66
2022-11-20T12:59:26.205Z,7.71
2022-11-20T13:00:26.169Z,7.75
2022-11-20T13:01:26.144Z,7.84
2022-11-20T13:02:26.153Z,7.92
2022-11-20T13:03:26.164Z,7.92
2022-11-20T13:04:26.473Z,7.82
2022-11-20T13:05:26.175Z,7.72
2022-11-20T13:06:26.076Z,7.75
2022-11-20T13:07:26.074Z,7.56
2022-11-20T13:08:26.034Z,7.23
2022-11-20T13:09:26.055Z,7.23
2022-11-20T13:10:26.112Z,7.32
2022-11-20T13:11:26.267Z,7.35
2022-11-20T13:12:26.025Z,7.34
2022-11-20T13:13:26.024Z,7.32
2022-11-20T13:14:26.055Z,7.41
2022-11-20T13:15:26.075Z,7.50
2022-11-20T13:16:25.930Z,7.50
2022-11-20T13:17:25.939Z,7.52
2022-11-20T13:18:25.893Z,7.50